sensor_id;sensor_type;location;lat;lon;timestamp;P1;durP1;ratioP1;P2;durP2;ratioP2
17504;SDS011;8870;50.950;11.762;2023-07-13T00:00:26;0.60;;;0.30;;
17504;SDS011;8870;50.950;11.762;2023-07-13T00:05:52;1.30;;;0.55;;
17504;SDS011;8870;50.950;11.762;2023-07-13T00:11:29;0.80;;;0.50;;
17504;SDS011;8870;50.950;11.762;2023-07-13T00:16:47;0.93;;;0.47;;
17504;SDS011;8870;50.950;11.762;2023-07-13T00:22:24;2.33;;;0.65;;
17504;SDS011;8870;50.950;11.762;2023-07-13T00:27:43;0.68;;;0.47;;
17504;SDS011;8870;50.950;11.762;2023-07-13T00:33:15;1.00;;;0.55;;
17504;SDS011;8870;50.950;11.762;2023-07-13T00:38:50;0.75;;;0.40;;
17504;SDS011;8870;50.950;11.762;2023-07-13T00:44:09;1.45;;;0.60;;
17504;SDS011;8870;50.950;11.762;2023-07-13T00:49:45;1.10;;;0.50;;
17504;SDS011;8870;50.950;11.762;2023-07-13T00:55:06;1.30;;;0.60;;
17504;SDS011;8870;50.950;11.762;2023-07-13T01:00:39;3.15;;;0.60;;
17504;SDS011;8870;50.950;11.762;2023-07-13T01:05:58;1.35;;;0.40;;
17504;SDS011;8870;50.950;11.762;2023-07-13T01:11:33;1.20;;;0.60;;
17504;SDS011;8870;50.950;11.762;2023-07-13T01:17:00;1.27;;;0.50;;
17504;SDS011;8870;50.950;11.762;2023-07-13T01:22:34;1.15;;;0.50;;
17504;SDS011;8870;50.950;11.762;2023-07-13T01:27:55;0.50;;;0.50;;
17504;SDS011;8870;50.950;11.762;2023-07-13T01:33:26;0.93;;;0.50;;
17504;SDS011;8870;50.950;11.762;2023-07-13T01:39:04;0.90;;;0.50;;
17504;SDS011;8870;50.950;11.762;2023-07-13T01:44:22;1.58;;;0.45;;
17504;SDS011;8870;50.950;11.762;2023-07-13T01:49:55;1.08;;;0.43;;
17504;SDS011;8870;50.950;11.762;2023-07-13T01:55:16;3.47;;;0.60;;
17504;SDS011;8870;50.950;11.762;2023-07-13T02:00:48;1.55;;;0.45;;
17504;SDS011;8870;50.950;11.762;2023-07-13T02:06:07;1.58;;;0.52;;
17504;SDS011;8870;50.950;11.762;2023-07-13T02:11:42;1.08;;;0.60;;
17504;SDS011;8870;50.950;11.762;2023-07-13T02:17:05;2.05;;;0.70;;
17504;SDS011;8870;50.950;11.762;2023-07-13T02:22:37;1.40;;;0.60;;
17504;SDS011;8870;50.950;11.762;2023-07-13T02:27:58;2.15;;;0.80;;
17504;SDS011;8870;50.950;11.762;2023-07-13T02:33:30;1.23;;;0.50;;
17504;SDS011;8870;50.950;11.762;2023-07-13T02:39:02;1.73;;;0.53;;
17504;SDS011;8870;50.950;11.762;2023-07-13T02:44:24;1.38;;;0.50;;
17504;SDS011;8870;50.950;11.762;2023-07-13T02:49:55;1.60;;;0.68;;
17504;SDS011;8870;50.950;11.762;2023-07-13T02:55:13;1.33;;;0.60;;
17504;SDS011;8870;50.950;11.762;2023-07-13T03:00:47;1.20;;;0.60;;
17504;SDS011;8870;50.950;11.762;2023-07-13T03:06:06;1.10;;;0.65;;
17504;SDS011;8870;50.950;11.762;2023-07-13T03:11:38;0.80;;;0.52;;
17504;SDS011;8870;50.950;11.762;2023-07-13T03:17:04;1.50;;;0.52;;
17504;SDS011;8870;50.950;11.762;2023-07-13T03:22:28;1.83;;;0.52;;
17504;SDS011;8870;50.950;11.762;2023-07-13T03:27:54;1.70;;;0.60;;
17504;SDS011;8870;50.950;11.762;2023-07-13T03:33:22;1.90;;;0.60;;
17504;SDS011;8870;50.950;11.762;2023-07-13T03:38:53;1.58;;;0.80;;
17504;SDS011;8870;50.950;11.762;2023-07-13T03:44:22;2.47;;;0.60;;
17504;SDS011;8870;50.950;11.762;2023-07-13T03:49:57;1.08;;;0.60;;
17504;SDS011;8870;50.950;11.762;2023-07-13T03:55:15;2.67;;;0.52;;
17504;SDS011;8870;50.950;11.762;2023-07-13T04:00:48;1.63;;;0.80;;
17504;SDS011;8870;50.950;11.762;2023-07-13T04:06:12;2.30;;;0.80;;
17504;SDS011;8870;50.950;11.762;2023-07-13T04:11:47;0.95;;;0.60;;
17504;SDS011;8870;50.950;11.762;2023-07-13T04:17:05;3.45;;;0.70;;
17504;SDS011;8870;50.950;11.762;2023-07-13T04:22:39;2.05;;;0.70;;
17504;SDS011;8870;50.950;11.762;2023-07-13T04:27:57;1.25;;;0.60;;
17504;SDS011;8870;50.950;11.762;2023-07-13T04:33:28;1.52;;;0.60;;
17504;SDS011;8870;50.950;11.762;2023-07-13T04:39:05;2.30;;;0.80;;
17504;SDS011;8870;50.950;11.762;2023-07-13T04:44:23;2.15;;;0.70;;
17504;SDS011;8870;50.950;11.762;2023-07-13T04:49:56;3.28;;;0.70;;
17504;SDS011;8870;50.950;11.762;2023-07-13T04:55:18;5.30;;;0.95;;
17504;SDS011;8870;50.950;11.762;2023-07-13T05:00:52;4.32;;;0.80;;
17504;SDS011;8870;50.950;11.762;2023-07-13T05:06:11;3.33;;;0.85;;
17504;SDS011;8870;50.950;11.762;2023-07-13T05:11:47;1.80;;;0.80;;
17504;SDS011;8870;50.950;11.762;2023-07-13T05:17:05;1.77;;;0.90;;
17504;SDS011;8870;50.950;11.762;2023-07-13T05:22:37;1.50;;;0.70;;
17504;SDS011;8870;50.950;11.762;2023-07-13T05:27:58;1.63;;;0.80;;
17504;SDS011;8870;50.950;11.762;2023-07-13T05:33:29;1.55;;;0.80;;
17504;SDS011;8870;50.950;11.762;2023-07-13T05:39:02;2.20;;;0.95;;
17504;SDS011;8870;50.950;11.762;2023-07-13T05:44:24;2.15;;;0.90;;
17504;SDS011;8870;50.950;11.762;2023-07-13T05:49:55;2.53;;;0.90;;
17504;SDS011;8870;50.950;11.762;2023-07-13T05:55:14;4.00;;;1.08;;
17504;SDS011;8870;50.950;11.762;2023-07-13T06:00:57;1.73;;;0.80;;
17504;SDS011;8870;50.950;11.762;2023-07-13T06:06:18;1.48;;;0.70;;
17504;SDS011;8870;50.950;11.762;2023-07-13T06:11:49;2.60;;;0.85;;
17504;SDS011;8870;50.950;11.762;2023-07-13T06:17:10;2.72;;;0.93;;
17504;SDS011;8870;50.950;11.762;2023-07-13T06:22:42;1.73;;;0.90;;
17504;SDS011;8870;50.950;11.762;2023-07-13T06:28:01;1.33;;;0.77;;
17504;SDS011;8870;50.950;11.762;2023-07-13T06:33:36;1.85;;;0.90;;
17504;SDS011;8870;50.950;11.762;2023-07-13T06:38:54;2.35;;;0.98;;
17504;SDS011;8870;50.950;11.762;2023-07-13T06:44:27;3.97;;;0.80;;
17504;SDS011;8870;50.950;11.762;2023-07-13T06:49:48;1.85;;;0.80;;
17504;SDS011;8870;50.950;11.762;2023-07-13T06:55:20;2.13;;;0.90;;
17504;SDS011;8870;50.950;11.762;2023-07-13T07:00:38;4.13;;;1.10;;
17504;SDS011;8870;50.950;11.762;2023-07-13T07:06:15;2.00;;;0.90;;
17504;SDS011;8870;50.950;11.762;2023-07-13T07:11:34;2.33;;;0.90;;
17504;SDS011;8870;50.950;11.762;2023-07-13T07:17:17;2.03;;;0.90;;
17504;SDS011;8870;50.950;11.762;2023-07-13T07:22:38;2.17;;;0.90;;
17504;SDS011;8870;50.950;11.762;2023-07-13T07:28:09;2.50;;;0.93;;
17504;SDS011;8870;50.950;11.762;2023-07-13T07:33:37;2.83;;;0.98;;
17504;SDS011;8870;50.950;11.762;2023-07-13T07:39:14;1.48;;;0.80;;
17504;SDS011;8870;50.950;11.762;2023-07-13T07:44:45;2.83;;;1.00;;
17504;SDS011;8870;50.950;11.762;2023-07-13T07:50:04;3.83;;;0.98;;
17504;SDS011;8870;50.950;11.762;2023-07-13T07:55:38;3.83;;;0.85;;
17504;SDS011;8870;50.950;11.762;2023-07-13T08:01:03;2.17;;;0.90;;
17504;SDS011;8870;50.950;11.762;2023-07-13T08:06:37;2.22;;;0.90;;
17504;SDS011;8870;50.950;11.762;2023-07-13T08:11:58;4.45;;;0.70;;
17504;SDS011;8870;50.950;11.762;2023-07-13T08:17:49;2.25;;;0.90;;
17504;SDS011;8870;50.950;11.762;2023-07-13T08:23:08;1.63;;;0.80;;
17504;SDS011;8870;50.950;11.762;2023-07-13T08:28:43;2.35;;;1.00;;
17504;SDS011;8870;50.950;11.762;2023-07-13T08:34:08;2.55;;;0.90;;
17504;SDS011;8870;50.950;11.762;2023-07-13T08:39:39;3.85;;;0.80;;
17504;SDS011;8870;50.950;11.762;2023-07-13T08:45:02;1.85;;;0.80;;
17504;SDS011;8870;50.950;11.762;2023-07-13T08:50:39;2.20;;;0.80;;
17504;SDS011;8870;50.950;11.762;2023-07-13T08:56:09;1.75;;;0.80;;
17504;SDS011;8870;50.950;11.762;2023-07-13T09:01:55;3.05;;;0.93;;
17504;SDS011;8870;50.950;11.762;2023-07-13T09:07:24;3.22;;;0.73;;
17504;SDS011;8870;50.950;11.762;2023-07-13T09:13:06;1.88;;;0.80;;
17504;SDS011;8870;50.950;11.762;2023-07-13T09:18:36;1.60;;;0.60;;
17504;SDS011;8870;50.950;11.762;2023-07-13T09:24:26;2.97;;;0.80;;
17504;SDS011;8870;50.950;11.762;2023-07-13T09:29:54;1.73;;;0.77;;
17504;SDS011;8870;50.950;11.762;2023-07-13T09:35:35;1.17;;;0.73;;
17504;SDS011;8870;50.950;11.762;2023-07-13T09:41:01;3.15;;;0.60;;
17504;SDS011;8870;50.950;11.762;2023-07-13T09:46:44;0.52;;;0.40;;
17504;SDS011;8870;50.950;11.762;2023-07-13T09:52:09;2.22;;;0.60;;
17504;SDS011;8870;50.950;11.762;2023-07-13T09:57:42;0.60;;;0.30;;
17504;SDS011;8870;50.950;11.762;2023-07-13T10:03:09;2.40;;;0.60;;
17504;SDS011;8870;50.950;11.762;2023-07-13T10:08:50;2.38;;;0.70;;
17504;SDS011;8870;50.950;11.762;2023-07-13T10:14:10;2.30;;;0.52;;
17504;SDS011;8870;50.950;11.762;2023-07-13T10:19:44;1.20;;;0.50;;
17504;SDS011;8870;50.950;11.762;2023-07-13T10:25:17;3.88;;;0.50;;
17504;SDS011;8870;50.950;11.762;2023-07-13T10:30:49;2.03;;;0.50;;
17504;SDS011;8870;50.950;11.762;2023-07-13T10:36:13;2.63;;;0.52;;
17504;SDS011;8870;50.950;11.762;2023-07-13T10:41:54;1.30;;;0.47;;
17504;SDS011;8870;50.950;11.762;2023-07-13T10:47:16;4.75;;;0.50;;
17504;SDS011;8870;50.950;11.762;2023-07-13T10:52:48;1.38;;;0.40;;
17504;SDS011;8870;50.950;11.762;2023-07-13T10:58:19;1.95;;;0.30;;
17504;SDS011;8870;50.950;11.762;2023-07-13T11:03:54;1.42;;;0.32;;
17504;SDS011;8870;50.950;11.762;2023-07-13T11:09:30;1.45;;;0.40;;
17504;SDS011;8870;50.950;11.762;2023-07-13T11:15:12;1.15;;;0.40;;
17504;SDS011;8870;50.950;11.762;2023-07-13T11:20:33;2.63;;;0.50;;
17504;SDS011;8870;50.950;11.762;2023-07-13T11:26:36;2.75;;;0.40;;
17504;SDS011;8870;50.950;11.762;2023-07-13T11:38:00;1.20;;;0.40;;
17504;SDS011;8870;50.950;11.762;2023-07-13T11:43:20;1.75;;;0.30;;
17504;SDS011;8870;50.950;11.762;2023-07-13T11:48:58;0.85;;;0.40;;
17504;SDS011;8870;50.950;11.762;2023-07-13T11:54:20;1.67;;;0.40;;
17504;SDS011;8870;50.950;11.762;2023-07-13T12:05:16;0.80;;;0.40;;
17504;SDS011;8870;50.950;11.762;2023-07-13T12:16:15;2.45;;;0.50;;
17504;SDS011;8870;50.950;11.762;2023-07-13T12:21:52;1.48;;;0.40;;
17504;SDS011;8870;50.950;11.762;2023-07-13T12:38:26;1.35;;;0.40;;
17504;SDS011;8870;50.950;11.762;2023-07-13T12:43:57;2.13;;;0.40;;
17504;SDS011;8870;50.950;11.762;2023-07-13T12:49:16;0.85;;;0.30;;
17504;SDS011;8870;50.950;11.762;2023-07-13T12:54:56;0.82;;;0.40;;
17504;SDS011;8870;50.950;11.762;2023-07-13T13:00:23;2.85;;;0.50;;
17504;SDS011;8870;50.950;11.762;2023-07-13T13:05:57;2.10;;;0.50;;
17504;SDS011;8870;50.950;11.762;2023-07-13T13:11:21;1.42;;;0.45;;
17504;SDS011;8870;50.950;11.762;2023-07-13T13:16:53;2.53;;;0.45;;
17504;SDS011;8870;50.950;11.762;2023-07-13T13:22:11;3.45;;;0.43;;
17504;SDS011;8870;50.950;11.762;2023-07-13T13:27:46;0.38;;;0.30;;
17504;SDS011;8870;50.950;11.762;2023-07-13T13:33:05;0.43;;;0.30;;
17504;SDS011;8870;50.950;11.762;2023-07-13T13:38:41;1.02;;;0.40;;
17504;SDS011;8870;50.950;11.762;2023-07-13T13:44:04;2.53;;;0.47;;
17504;SDS011;8870;50.950;11.762;2023-07-13T13:49:38;1.20;;;0.40;;
17504;SDS011;8870;50.950;11.762;2023-07-13T13:54:57;1.08;;;0.40;;
17504;SDS011;8870;50.950;11.762;2023-07-13T14:00:31;2.05;;;0.40;;
17504;SDS011;8870;50.950;11.762;2023-07-13T14:05:50;4.43;;;0.43;;
17504;SDS011;8870;50.950;11.762;2023-07-13T14:11:23;2.78;;;0.50;;
17504;SDS011;8870;50.950;11.762;2023-07-13T14:16:44;1.17;;;0.40;;
17504;SDS011;8870;50.950;11.762;2023-07-13T14:22:16;1.42;;;0.40;;
17504;SDS011;8870;50.950;11.762;2023-07-13T14:27:36;4.28;;;0.50;;
17504;SDS011;8870;50.950;11.762;2023-07-13T14:33:11;2.42;;;0.40;;
17504;SDS011;8870;50.950;11.762;2023-07-13T14:38:29;1.95;;;0.50;;
17504;SDS011;8870;50.950;11.762;2023-07-13T14:43:59;0.90;;;0.30;;
17504;SDS011;8870;50.950;11.762;2023-07-13T14:49:24;2.25;;;0.35;;
17504;SDS011;8870;50.950;11.762;2023-07-13T14:54:56;1.23;;;0.40;;
17504;SDS011;8870;50.950;11.762;2023-07-13T15:00:15;2.22;;;0.38;;
17504;SDS011;8870;50.950;11.762;2023-07-13T15:05:51;0.85;;;0.40;;
17504;SDS011;8870;50.950;11.762;2023-07-13T15:11:10;0.93;;;0.30;;
17504;SDS011;8870;50.950;11.762;2023-07-13T15:16:42;1.27;;;0.43;;
17504;SDS011;8870;50.950;11.762;2023-07-13T15:22:03;2.15;;;0.22;;
17504;SDS011;8870;50.950;11.762;2023-07-13T15:27:34;3.30;;;0.40;;
17504;SDS011;8870;50.950;11.762;2023-07-13T15:32:55;3.38;;;0.40;;
17504;SDS011;8870;50.950;11.762;2023-07-13T15:38:30;0.88;;;0.30;;
17504;SDS011;8870;50.950;11.762;2023-07-13T15:43:49;1.15;;;0.40;;
17504;SDS011;8870;50.950;11.762;2023-07-13T15:49:24;1.27;;;0.30;;
17504;SDS011;8870;50.950;11.762;2023-07-13T15:54:44;1.45;;;0.30;;
17504;SDS011;8870;50.950;11.762;2023-07-13T16:00:20;1.00;;;0.40;;
17504;SDS011;8870;50.950;11.762;2023-07-13T16:05:45;1.17;;;0.50;;
17504;SDS011;8870;50.950;11.762;2023-07-13T16:11:22;2.25;;;0.32;;
17504;SDS011;8870;50.950;11.762;2023-07-13T16:16:42;0.63;;;0.32;;
17504;SDS011;8870;50.950;11.762;2023-07-13T16:22:17;1.60;;;0.63;;
17504;SDS011;8870;50.950;11.762;2023-07-13T16:27:39;0.95;;;0.38;;
17504;SDS011;8870;50.950;11.762;2023-07-13T16:33:12;0.85;;;0.40;;
17504;SDS011;8870;50.950;11.762;2023-07-13T16:38:30;1.30;;;0.40;;
17504;SDS011;8870;50.950;11.762;2023-07-13T16:44:04;0.35;;;0.30;;
17504;SDS011;8870;50.950;11.762;2023-07-13T16:49:28;0.93;;;0.43;;
17504;SDS011;8870;50.950;11.762;2023-07-13T16:55:01;1.38;;;0.40;;
17504;SDS011;8870;50.950;11.762;2023-07-13T17:00:22;1.63;;;0.40;;
17504;SDS011;8870;50.950;11.762;2023-07-13T17:05:59;1.48;;;0.40;;
17504;SDS011;8870;50.950;11.762;2023-07-13T17:11:21;0.50;;;0.30;;
17504;SDS011;8870;50.950;11.762;2023-07-13T17:16:56;1.42;;;0.47;;
17504;SDS011;8870;50.950;11.762;2023-07-13T17:22:16;0.80;;;0.30;;
17504;SDS011;8870;50.950;11.762;2023-07-13T17:27:50;1.90;;;0.40;;
17504;SDS011;8870;50.950;11.762;2023-07-13T17:33:21;2.85;;;0.40;;
17504;SDS011;8870;50.950;11.762;2023-07-13T17:38:59;1.05;;;0.40;;
17504;SDS011;8870;50.950;11.762;2023-07-13T17:44:19;1.90;;;0.50;;
17504;SDS011;8870;50.950;11.762;2023-07-13T17:49:52;2.67;;;0.60;;
17504;SDS011;8870;50.950;11.762;2023-07-13T17:55:14;1.48;;;0.70;;
17504;SDS011;8870;50.950;11.762;2023-07-13T18:00:47;2.83;;;0.60;;
17504;SDS011;8870;50.950;11.762;2023-07-13T18:06:11;0.85;;;0.63;;
17504;SDS011;8870;50.950;11.762;2023-07-13T18:11:45;2.58;;;0.60;;
17504;SDS011;8870;50.950;11.762;2023-07-13T18:17:03;2.97;;;0.65;;
17504;SDS011;8870;50.950;11.762;2023-07-13T18:22:38;1.33;;;0.70;;
17504;SDS011;8870;50.950;11.762;2023-07-13T18:27:57;1.30;;;0.60;;
17504;SDS011;8870;50.950;11.762;2023-07-13T18:33:29;2.45;;;0.50;;
17504;SDS011;8870;50.950;11.762;2023-07-13T18:38:51;0.60;;;0.40;;
17504;SDS011;8870;50.950;11.762;2023-07-13T18:44:24;2.60;;;0.50;;
17504;SDS011;8870;50.950;11.762;2023-07-13T18:49:43;2.85;;;0.52;;
17504;SDS011;8870;50.950;11.762;2023-07-13T18:55:20;0.40;;;0.40;;
17504;SDS011;8870;50.950;11.762;2023-07-13T19:00:40;2.47;;;0.50;;
17504;SDS011;8870;50.950;11.762;2023-07-13T19:06:22;0.80;;;0.50;;
17504;SDS011;8870;50.950;11.762;2023-07-13T19:11:44;1.08;;;0.50;;
17504;SDS011;8870;50.950;11.762;2023-07-13T19:17:17;1.33;;;0.43;;
17504;SDS011;8870;50.950;11.762;2023-07-13T19:22:36;2.42;;;0.47;;
17504;SDS011;8870;50.950;11.762;2023-07-13T19:28:18;0.52;;;0.35;;
17504;SDS011;8870;50.950;11.762;2023-07-13T19:33:43;0.60;;;0.30;;
17504;SDS011;8870;50.950;11.762;2023-07-13T19:39:21;2.70;;;0.65;;
17504;SDS011;8870;50.950;11.762;2023-07-13T19:44:47;3.50;;;0.63;;
17504;SDS011;8870;50.950;11.762;2023-07-13T19:50:18;2.22;;;0.40;;
17504;SDS011;8870;50.950;11.762;2023-07-13T19:55:39;1.33;;;0.30;;
17504;SDS011;8870;50.950;11.762;2023-07-13T20:01:14;3.58;;;0.60;;
17504;SDS011;8870;50.950;11.762;2023-07-13T20:06:33;1.65;;;0.45;;
17504;SDS011;8870;50.950;11.762;2023-07-13T20:12:08;3.22;;;0.40;;
17504;SDS011;8870;50.950;11.762;2023-07-13T20:17:32;0.68;;;0.47;;
17504;SDS011;8870;50.950;11.762;2023-07-13T20:23:08;0.73;;;0.40;;
17504;SDS011;8870;50.950;11.762;2023-07-13T20:28:29;2.25;;;0.40;;
17504;SDS011;8870;50.950;11.762;2023-07-13T20:34:04;3.53;;;0.90;;
17504;SDS011;8870;50.950;11.762;2023-07-13T20:39:37;5.25;;;1.00;;
17504;SDS011;8870;50.950;11.762;2023-07-13T20:44:55;3.50;;;0.90;;
17504;SDS011;8870;50.950;11.762;2023-07-13T20:50:29;3.63;;;0.80;;
17504;SDS011;8870;50.950;11.762;2023-07-13T20:55:48;3.50;;;0.88;;
17504;SDS011;8870;50.950;11.762;2023-07-13T21:01:20;1.88;;;0.80;;
17504;SDS011;8870;50.950;11.762;2023-07-13T21:06:44;2.40;;;0.90;;
17504;SDS011;8870;50.950;11.762;2023-07-13T21:12:16;2.67;;;0.90;;
17504;SDS011;8870;50.950;11.762;2023-07-13T21:17:34;2.05;;;0.90;;
17504;SDS011;8870;50.950;11.762;2023-07-13T21:23:16;3.17;;;0.93;;
17504;SDS011;8870;50.950;11.762;2023-07-13T21:28:43;2.53;;;0.80;;
17504;SDS011;8870;50.950;11.762;2023-07-13T21:34:16;1.92;;;0.82;;
17504;SDS011;8870;50.950;11.762;2023-07-13T21:39:39;3.13;;;0.90;;
17504;SDS011;8870;50.950;11.762;2023-07-13T21:45:16;1.90;;;1.00;;
17504;SDS011;8870;50.950;11.762;2023-07-13T21:50:41;1.75;;;0.80;;
17504;SDS011;8870;50.950;11.762;2023-07-13T21:56:18;1.52;;;0.80;;
17504;SDS011;8870;50.950;11.762;2023-07-13T22:01:37;2.15;;;0.90;;
17504;SDS011;8870;50.950;11.762;2023-07-13T22:07:09;1.98;;;0.90;;
17504;SDS011;8870;50.950;11.762;2023-07-13T22:12:31;2.85;;;0.95;;
17504;SDS011;8870;50.950;11.762;2023-07-13T22:18:03;1.92;;;0.90;;
17504;SDS011;8870;50.950;11.762;2023-07-13T22:23:47;1.75;;;0.80;;
17504;SDS011;8870;50.950;11.762;2023-07-13T22:29:23;0.75;;;0.60;;
17504;SDS011;8870;50.950;11.762;2023-07-13T22:34:52;1.52;;;0.70;;
17504;SDS011;8870;50.950;11.762;2023-07-13T22:40:24;1.38;;;0.88;;
17504;SDS011;8870;50.950;11.762;2023-07-13T22:45:47;1.50;;;0.73;;
17504;SDS011;8870;50.950;11.762;2023-07-13T22:51:20;2.40;;;0.80;;
17504;SDS011;8870;50.950;11.762;2023-07-13T22:56:40;2.97;;;0.70;;
17504;SDS011;8870;50.950;11.762;2023-07-13T23:02:16;1.15;;;0.68;;
17504;SDS011;8870;50.950;11.762;2023-07-13T23:07:49;1.33;;;0.80;;
17504;SDS011;8870;50.950;11.762;2023-07-13T23:13:08;2.28;;;0.82;;
17504;SDS011;8870;50.950;11.762;2023-07-13T23:18:41;1.63;;;0.98;;
17504;SDS011;8870;50.950;11.762;2023-07-13T23:24:00;2.95;;;0.90;;
17504;SDS011;8870;50.950;11.762;2023-07-13T23:29:32;1.83;;;0.98;;
17504;SDS011;8870;50.950;11.762;2023-07-13T23:34:52;2.20;;;1.00;;
17504;SDS011;8870;50.950;11.762;2023-07-13T23:40:24;1.90;;;0.80;;
17504;SDS011;8870;50.950;11.762;2023-07-13T23:45:44;1.58;;;0.80;;
17504;SDS011;8870;50.950;11.762;2023-07-13T23:51:19;1.70;;;0.80;;
17504;SDS011;8870;50.950;11.762;2023-07-13T23:56:40;3.65;;;0.80;;
